sensor_id;sensor_type;location;lat;lon;timestamp;P1;durP1;ratioP1;P2;durP2;ratioP2
40052;SDS011;25758;48.200;16.338;2024-01-16T00:00:45;3.73;;;1.70;;
40052;SDS011;25758;48.200;16.338;2024-01-16T00:03:11;3.77;;;1.83;;
40052;SDS011;25758;48.200;16.338;2024-01-16T00:05:37;4.17;;;1.70;;
40052;SDS011;25758;48.200;16.338;2024-01-16T00:08:03;2.60;;;1.33;;
40052;SDS011;25758;48.200;16.338;2024-01-16T00:10:28;3.47;;;1.87;;
40052;SDS011;25758;48.200;16.338;2024-01-16T00:12:54;3.93;;;2.13;;
40052;SDS011;25758;48.200;16.338;2024-01-16T00:15:20;3.27;;;1.70;;
40052;SDS011;25758;48.200;16.338;2024-01-16T00:17:45;4.17;;;1.83;;
40052;SDS011;25758;48.200;16.338;2024-01-16T00:20:11;4.07;;;2.10;;
40052;SDS011;25758;48.200;16.338;2024-01-16T00:22:37;4.83;;;2.00;;
40052;SDS011;25758;48.200;16.338;2024-01-16T00:25:02;5.93;;;2.13;;
40052;SDS011;25758;48.200;16.338;2024-01-16T00:27:28;4.80;;;2.27;;
40052;SDS011;25758;48.200;16.338;2024-01-16T00:29:54;5.00;;;2.10;;
40052;SDS011;25758;48.200;16.338;2024-01-16T00:32:19;3.17;;;1.80;;
40052;SDS011;25758;48.200;16.338;2024-01-16T00:34:45;6.27;;;2.23;;
40052;SDS011;25758;48.200;16.338;2024-01-16T00:37:11;3.50;;;1.67;;
40052;SDS011;25758;48.200;16.338;2024-01-16T00:39:36;2.80;;;1.70;;
40052;SDS011;25758;48.200;16.338;2024-01-16T00:42:02;4.33;;;1.47;;
40052;SDS011;25758;48.200;16.338;2024-01-16T00:44:28;4.10;;;2.00;;
40052;SDS011;25758;48.200;16.338;2024-01-16T00:46:54;3.90;;;2.20;;
40052;SDS011;25758;48.200;16.338;2024-01-16T00:49:19;3.97;;;2.23;;
40052;SDS011;25758;48.200;16.338;2024-01-16T00:51:45;5.93;;;2.03;;
40052;SDS011;25758;48.200;16.338;2024-01-16T00:54:11;2.97;;;1.53;;
40052;SDS011;25758;48.200;16.338;2024-01-16T00:56:36;5.10;;;1.53;;
40052;SDS011;25758;48.200;16.338;2024-01-16T00:59:02;2.73;;;1.80;;
40052;SDS011;25758;48.200;16.338;2024-01-16T01:01:28;4.87;;;2.00;;
40052;SDS011;25758;48.200;16.338;2024-01-16T01:03:54;8.70;;;2.20;;
40052;SDS011;25758;48.200;16.338;2024-01-16T01:06:20;3.27;;;1.80;;
40052;SDS011;25758;48.200;16.338;2024-01-16T01:08:46;5.73;;;2.10;;
40052;SDS011;25758;48.200;16.338;2024-01-16T01:11:11;4.07;;;2.10;;
40052;SDS011;25758;48.200;16.338;2024-01-16T01:13:37;4.07;;;2.23;;
40052;SDS011;25758;48.200;16.338;2024-01-16T01:16:03;3.77;;;2.13;;
40052;SDS011;25758;48.200;16.338;2024-01-16T01:18:29;5.90;;;2.80;;
40052;SDS011;25758;48.200;16.338;2024-01-16T01:20:54;5.17;;;2.23;;
40052;SDS011;25758;48.200;16.338;2024-01-16T01:23:21;4.43;;;2.23;;
40052;SDS011;25758;48.200;16.338;2024-01-16T01:25:47;4.10;;;2.57;;
40052;SDS011;25758;48.200;16.338;2024-01-16T01:28:12;6.20;;;2.80;;
40052;SDS011;25758;48.200;16.338;2024-01-16T01:30:38;9.10;;;2.20;;
40052;SDS011;25758;48.200;16.338;2024-01-16T01:33:04;6.07;;;1.87;;
40052;SDS011;25758;48.200;16.338;2024-01-16T01:35:30;3.67;;;1.77;;
40052;SDS011;25758;48.200;16.338;2024-01-16T01:37:55;7.27;;;2.80;;
40052;SDS011;25758;48.200;16.338;2024-01-16T01:40:21;7.93;;;2.40;;
40052;SDS011;25758;48.200;16.338;2024-01-16T01:42:47;4.87;;;2.63;;
40052;SDS011;25758;48.200;16.338;2024-01-16T01:45:12;3.73;;;2.23;;
40052;SDS011;25758;48.200;16.338;2024-01-16T01:47:39;8.03;;;2.60;;
40052;SDS011;25758;48.200;16.338;2024-01-16T01:50:07;3.07;;;1.83;;
40052;SDS011;25758;48.200;16.338;2024-01-16T01:52:34;4.70;;;2.17;;
40052;SDS011;25758;48.200;16.338;2024-01-16T01:55:01;4.87;;;1.83;;
40052;SDS011;25758;48.200;16.338;2024-01-16T01:57:28;6.37;;;2.50;;
40052;SDS011;25758;48.200;16.338;2024-01-16T01:59:54;7.53;;;1.77;;
40052;SDS011;25758;48.200;16.338;2024-01-16T02:02:20;4.43;;;1.73;;
40052;SDS011;25758;48.200;16.338;2024-01-16T02:04:47;4.70;;;1.93;;
40052;SDS011;25758;48.200;16.338;2024-01-16T02:07:12;5.90;;;2.17;;
40052;SDS011;25758;48.200;16.338;2024-01-16T02:09:39;3.30;;;1.70;;
40052;SDS011;25758;48.200;16.338;2024-01-16T02:12:05;3.40;;;1.67;;
40052;SDS011;25758;48.200;16.338;2024-01-16T02:14:32;4.67;;;2.00;;
40052;SDS011;25758;48.200;16.338;2024-01-16T02:16:57;3.83;;;2.00;;
40052;SDS011;25758;48.200;16.338;2024-01-16T02:19:23;3.43;;;1.50;;
40052;SDS011;25758;48.200;16.338;2024-01-16T02:21:50;5.23;;;2.23;;
40052;SDS011;25758;48.200;16.338;2024-01-16T02:24:19;4.10;;;2.13;;
40052;SDS011;25758;48.200;16.338;2024-01-16T02:26:46;3.53;;;1.80;;
40052;SDS011;25758;48.200;16.338;2024-01-16T02:29:12;2.77;;;1.80;;
40052;SDS011;25758;48.200;16.338;2024-01-16T02:31:38;3.63;;;2.00;;
40052;SDS011;25758;48.200;16.338;2024-01-16T02:34:04;5.37;;;2.00;;
40052;SDS011;25758;48.200;16.338;2024-01-16T02:36:30;3.33;;;1.90;;
40052;SDS011;25758;48.200;16.338;2024-01-16T02:38:55;3.70;;;2.10;;
40052;SDS011;25758;48.200;16.338;2024-01-16T02:41:21;4.30;;;1.93;;
40052;SDS011;25758;48.200;16.338;2024-01-16T02:43:47;2.73;;;1.73;;
40052;SDS011;25758;48.200;16.338;2024-01-16T02:46:13;5.03;;;2.17;;
40052;SDS011;25758;48.200;16.338;2024-01-16T02:48:39;6.27;;;2.50;;
40052;SDS011;25758;48.200;16.338;2024-01-16T02:51:07;4.07;;;1.83;;
40052;SDS011;25758;48.200;16.338;2024-01-16T02:53:33;5.27;;;1.80;;
40052;SDS011;25758;48.200;16.338;2024-01-16T02:55:59;4.00;;;1.93;;
40052;SDS011;25758;48.200;16.338;2024-01-16T02:58:28;4.20;;;2.10;;
40052;SDS011;25758;48.200;16.338;2024-01-16T03:00:55;4.87;;;1.67;;
40052;SDS011;25758;48.200;16.338;2024-01-16T03:03:22;7.43;;;2.20;;
40052;SDS011;25758;48.200;16.338;2024-01-16T03:05:48;5.03;;;2.57;;
40052;SDS011;25758;48.200;16.338;2024-01-16T03:08:14;4.03;;;2.30;;
40052;SDS011;25758;48.200;16.338;2024-01-16T03:10:39;4.17;;;2.10;;
40052;SDS011;25758;48.200;16.338;2024-01-16T03:13:06;6.67;;;1.77;;
40052;SDS011;25758;48.200;16.338;2024-01-16T03:15:32;4.87;;;2.13;;
40052;SDS011;25758;48.200;16.338;2024-01-16T03:18:00;2.73;;;1.30;;
40052;SDS011;25758;48.200;16.338;2024-01-16T03:20:26;4.90;;;2.37;;
40052;SDS011;25758;48.200;16.338;2024-01-16T03:22:52;4.57;;;2.27;;
40052;SDS011;25758;48.200;16.338;2024-01-16T03:25:18;4.27;;;2.07;;
40052;SDS011;25758;48.200;16.338;2024-01-16T03:27:44;5.47;;;2.60;;
40052;SDS011;25758;48.200;16.338;2024-01-16T03:30:10;6.57;;;2.30;;
40052;SDS011;25758;48.200;16.338;2024-01-16T03:32:36;5.67;;;2.00;;
40052;SDS011;25758;48.200;16.338;2024-01-16T03:35:02;2.20;;;1.60;;
40052;SDS011;25758;48.200;16.338;2024-01-16T03:37:28;5.63;;;2.40;;
40052;SDS011;25758;48.200;16.338;2024-01-16T03:39:54;5.10;;;1.83;;
40052;SDS011;25758;48.200;16.338;2024-01-16T03:42:20;7.50;;;1.93;;
40052;SDS011;25758;48.200;16.338;2024-01-16T03:44:46;3.63;;;1.87;;
40052;SDS011;25758;48.200;16.338;2024-01-16T03:47:12;6.43;;;1.90;;
40052;SDS011;25758;48.200;16.338;2024-01-16T03:49:37;3.90;;;1.80;;
40052;SDS011;25758;48.200;16.338;2024-01-16T03:52:03;2.70;;;1.90;;
40052;SDS011;25758;48.200;16.338;2024-01-16T03:54:29;8.43;;;2.13;;
40052;SDS011;25758;48.200;16.338;2024-01-16T03:56:55;3.50;;;1.67;;
40052;SDS011;25758;48.200;16.338;2024-01-16T03:59:21;4.80;;;2.40;;
40052;SDS011;25758;48.200;16.338;2024-01-16T04:01:46;5.40;;;2.17;;
40052;SDS011;25758;48.200;16.338;2024-01-16T04:04:13;3.23;;;1.53;;
40052;SDS011;25758;48.200;16.338;2024-01-16T04:06:39;4.83;;;2.40;;
40052;SDS011;25758;48.200;16.338;2024-01-16T04:09:05;3.47;;;1.93;;
40052;SDS011;25758;48.200;16.338;2024-01-16T04:11:33;3.30;;;1.73;;
40052;SDS011;25758;48.200;16.338;2024-01-16T04:13:59;4.07;;;1.77;;
40052;SDS011;25758;48.200;16.338;2024-01-16T04:16:25;3.03;;;1.27;;
40052;SDS011;25758;48.200;16.338;2024-01-16T04:18:50;6.50;;;2.03;;
40052;SDS011;25758;48.200;16.338;2024-01-16T04:21:16;5.50;;;2.43;;
40052;SDS011;25758;48.200;16.338;2024-01-16T04:23:42;6.27;;;1.77;;
40052;SDS011;25758;48.200;16.338;2024-01-16T04:26:07;3.77;;;2.07;;
40052;SDS011;25758;48.200;16.338;2024-01-16T04:28:33;3.70;;;2.00;;
40052;SDS011;25758;48.200;16.338;2024-01-16T04:31:02;3.83;;;1.87;;
40052;SDS011;25758;48.200;16.338;2024-01-16T04:33:31;3.90;;;1.73;;
40052;SDS011;25758;48.200;16.338;2024-01-16T04:35:57;1.97;;;1.27;;
40052;SDS011;25758;48.200;16.338;2024-01-16T04:38:23;4.90;;;1.87;;
40052;SDS011;25758;48.200;16.338;2024-01-16T04:40:49;5.50;;;1.77;;
40052;SDS011;25758;48.200;16.338;2024-01-16T04:43:15;2.77;;;1.40;;
40052;SDS011;25758;48.200;16.338;2024-01-16T04:45:40;3.60;;;1.67;;
40052;SDS011;25758;48.200;16.338;2024-01-16T04:48:06;2.53;;;1.30;;
40052;SDS011;25758;48.200;16.338;2024-01-16T04:50:33;4.73;;;2.20;;
40052;SDS011;25758;48.200;16.338;2024-01-16T04:52:59;5.47;;;1.43;;
40052;SDS011;25758;48.200;16.338;2024-01-16T04:55:29;4.23;;;1.50;;
40052;SDS011;25758;48.200;16.338;2024-01-16T04:57:55;4.03;;;1.23;;
40052;SDS011;25758;48.200;16.338;2024-01-16T05:00:21;3.07;;;1.07;;
40052;SDS011;25758;48.200;16.338;2024-01-16T05:02:47;7.27;;;1.60;;
40052;SDS011;25758;48.200;16.338;2024-01-16T05:05:13;4.00;;;1.23;;
40052;SDS011;25758;48.200;16.338;2024-01-16T05:07:39;3.00;;;1.20;;
40052;SDS011;25758;48.200;16.338;2024-01-16T05:10:05;2.53;;;1.13;;
40052;SDS011;25758;48.200;16.338;2024-01-16T05:12:32;1.93;;;0.70;;
40052;SDS011;25758;48.200;16.338;2024-01-16T05:14:57;2.27;;;0.80;;
40052;SDS011;25758;48.200;16.338;2024-01-16T05:17:23;2.73;;;1.07;;
40052;SDS011;25758;48.200;16.338;2024-01-16T05:19:49;4.40;;;1.23;;
40052;SDS011;25758;48.200;16.338;2024-01-16T05:22:15;2.77;;;1.20;;
40052;SDS011;25758;48.200;16.338;2024-01-16T05:24:40;4.77;;;1.20;;
40052;SDS011;25758;48.200;16.338;2024-01-16T05:27:06;2.03;;;0.50;;
40052;SDS011;25758;48.200;16.338;2024-01-16T05:29:32;2.70;;;0.90;;
40052;SDS011;25758;48.200;16.338;2024-01-16T05:31:58;4.27;;;1.20;;
40052;SDS011;25758;48.200;16.338;2024-01-16T05:34:23;2.00;;;0.97;;
40052;SDS011;25758;48.200;16.338;2024-01-16T05:36:49;9.17;;;0.83;;
40052;SDS011;25758;48.200;16.338;2024-01-16T05:39:15;2.20;;;0.80;;
40052;SDS011;25758;48.200;16.338;2024-01-16T05:41:42;3.67;;;0.67;;
40052;SDS011;25758;48.200;16.338;2024-01-16T05:44:07;3.07;;;0.80;;
40052;SDS011;25758;48.200;16.338;2024-01-16T05:46:33;4.43;;;0.60;;
40052;SDS011;25758;48.200;16.338;2024-01-16T05:48:59;6.97;;;0.80;;
40052;SDS011;25758;48.200;16.338;2024-01-16T05:51:25;3.13;;;0.60;;
40052;SDS011;25758;48.200;16.338;2024-01-16T05:53:52;4.83;;;0.60;;
40052;SDS011;25758;48.200;16.338;2024-01-16T05:56:18;4.20;;;1.00;;
40052;SDS011;25758;48.200;16.338;2024-01-16T05:58:44;5.37;;;0.93;;
40052;SDS011;25758;48.200;16.338;2024-01-16T06:01:09;4.40;;;0.70;;
40052;SDS011;25758;48.200;16.338;2024-01-16T06:03:38;3.03;;;0.60;;
40052;SDS011;25758;48.200;16.338;2024-01-16T06:06:04;3.17;;;0.97;;
40052;SDS011;25758;48.200;16.338;2024-01-16T06:08:30;2.87;;;0.50;;
40052;SDS011;25758;48.200;16.338;2024-01-16T06:10:56;3.10;;;0.43;;
40052;SDS011;25758;48.200;16.338;2024-01-16T06:13:22;4.03;;;0.90;;
40052;SDS011;25758;48.200;16.338;2024-01-16T06:15:47;4.13;;;1.13;;
40052;SDS011;25758;48.200;16.338;2024-01-16T06:18:13;5.57;;;1.60;;
40052;SDS011;25758;48.200;16.338;2024-01-16T06:20:39;2.93;;;0.83;;
40052;SDS011;25758;48.200;16.338;2024-01-16T06:23:04;7.93;;;0.73;;
40052;SDS011;25758;48.200;16.338;2024-01-16T06:25:30;1.17;;;0.60;;
40052;SDS011;25758;48.200;16.338;2024-01-16T06:27:55;3.60;;;0.73;;
40052;SDS011;25758;48.200;16.338;2024-01-16T06:30:21;1.87;;;0.80;;
40052;SDS011;25758;48.200;16.338;2024-01-16T06:32:48;2.07;;;0.60;;
40052;SDS011;25758;48.200;16.338;2024-01-16T06:35:15;7.33;;;1.07;;
40052;SDS011;25758;48.200;16.338;2024-01-16T06:37:41;2.90;;;0.73;;
40052;SDS011;25758;48.200;16.338;2024-01-16T06:40:07;1.47;;;0.43;;
40052;SDS011;25758;48.200;16.338;2024-01-16T06:42:33;5.13;;;1.07;;
40052;SDS011;25758;48.200;16.338;2024-01-16T06:44:58;4.00;;;1.13;;
40052;SDS011;25758;48.200;16.338;2024-01-16T06:47:24;3.23;;;0.77;;
40052;SDS011;25758;48.200;16.338;2024-01-16T06:49:49;1.00;;;0.50;;
40052;SDS011;25758;48.200;16.338;2024-01-16T06:52:15;2.70;;;0.77;;
40052;SDS011;25758;48.200;16.338;2024-01-16T06:54:41;1.33;;;0.43;;
40052;SDS011;25758;48.200;16.338;2024-01-16T06:57:06;4.93;;;0.57;;
40052;SDS011;25758;48.200;16.338;2024-01-16T06:59:32;2.63;;;0.57;;
40052;SDS011;25758;48.200;16.338;2024-01-16T07:01:57;2.37;;;0.60;;
40052;SDS011;25758;48.200;16.338;2024-01-16T07:04:23;1.33;;;0.53;;
40052;SDS011;25758;48.200;16.338;2024-01-16T07:06:49;4.20;;;0.90;;
40052;SDS011;25758;48.200;16.338;2024-01-16T07:09:14;2.30;;;0.67;;
40052;SDS011;25758;48.200;16.338;2024-01-16T07:11:41;3.60;;;0.80;;
40052;SDS011;25758;48.200;16.338;2024-01-16T07:14:08;4.03;;;0.80;;
40052;SDS011;25758;48.200;16.338;2024-01-16T07:16:34;2.33;;;0.40;;
40052;SDS011;25758;48.200;16.338;2024-01-16T07:19:00;2.53;;;0.50;;
40052;SDS011;25758;48.200;16.338;2024-01-16T07:21:27;2.60;;;0.47;;
40052;SDS011;25758;48.200;16.338;2024-01-16T07:23:53;5.43;;;0.60;;
40052;SDS011;25758;48.200;16.338;2024-01-16T07:26:19;4.67;;;0.80;;
40052;SDS011;25758;48.200;16.338;2024-01-16T07:28:45;1.60;;;0.43;;
40052;SDS011;25758;48.200;16.338;2024-01-16T07:31:12;5.60;;;0.70;;
40052;SDS011;25758;48.200;16.338;2024-01-16T07:33:38;0.93;;;0.40;;
40052;SDS011;25758;48.200;16.338;2024-01-16T07:36:05;2.60;;;0.67;;
40052;SDS011;25758;48.200;16.338;2024-01-16T07:38:31;3.10;;;0.40;;
40052;SDS011;25758;48.200;16.338;2024-01-16T07:40:57;5.27;;;0.60;;
40052;SDS011;25758;48.200;16.338;2024-01-16T07:43:23;1.90;;;0.50;;
40052;SDS011;25758;48.200;16.338;2024-01-16T07:45:49;7.00;;;0.77;;
40052;SDS011;25758;48.200;16.338;2024-01-16T07:48:14;4.87;;;0.83;;
40052;SDS011;25758;48.200;16.338;2024-01-16T07:50:40;22.50;;;8.17;;
40052;SDS011;25758;48.200;16.338;2024-01-16T07:53:06;3.10;;;0.67;;
40052;SDS011;25758;48.200;16.338;2024-01-16T07:55:31;9.13;;;0.70;;
40052;SDS011;25758;48.200;16.338;2024-01-16T07:57:57;2.63;;;0.57;;
40052;SDS011;25758;48.200;16.338;2024-01-16T08:00:22;3.63;;;0.90;;
40052;SDS011;25758;48.200;16.338;2024-01-16T08:02:48;1.63;;;0.40;;
40052;SDS011;25758;48.200;16.338;2024-01-16T08:05:18;3.33;;;1.40;;
40052;SDS011;25758;48.200;16.338;2024-01-16T08:07:46;4.37;;;0.90;;
40052;SDS011;25758;48.200;16.338;2024-01-16T08:10:12;3.57;;;0.43;;
40052;SDS011;25758;48.200;16.338;2024-01-16T08:12:38;3.37;;;0.60;;
40052;SDS011;25758;48.200;16.338;2024-01-16T08:18:07;2.70;;;0.50;;
40052;SDS011;25758;48.200;16.338;2024-01-16T08:20:32;1.93;;;0.50;;
40052;SDS011;25758;48.200;16.338;2024-01-16T08:22:58;4.93;;;0.60;;
40052;SDS011;25758;48.200;16.338;2024-01-16T08:25:24;1.73;;;0.60;;
40052;SDS011;25758;48.200;16.338;2024-01-16T08:27:49;3.87;;;0.47;;
40052;SDS011;25758;48.200;16.338;2024-01-16T08:30:15;9.83;;;0.87;;
40052;SDS011;25758;48.200;16.338;2024-01-16T08:32:41;1.63;;;0.60;;
40052;SDS011;25758;48.200;16.338;2024-01-16T08:35:06;1.40;;;0.70;;
40052;SDS011;25758;48.200;16.338;2024-01-16T08:37:33;5.97;;;0.97;;
40052;SDS011;25758;48.200;16.338;2024-01-16T08:39:59;1.27;;;0.50;;
40052;SDS011;25758;48.200;16.338;2024-01-16T08:42:25;1.40;;;0.50;;
40052;SDS011;25758;48.200;16.338;2024-01-16T08:44:50;2.42;;;0.70;;
40052;SDS011;25758;48.200;16.338;2024-01-16T08:47:16;2.80;;;1.17;;
40052;SDS011;25758;48.200;16.338;2024-01-16T08:49:41;3.67;;;0.60;;
40052;SDS011;25758;48.200;16.338;2024-01-16T08:52:08;2.85;;;0.55;;
40052;SDS011;25758;48.200;16.338;2024-01-16T08:54:34;4.28;;;0.35;;
40052;SDS011;25758;48.200;16.338;2024-01-16T08:57:00;1.92;;;0.40;;
40052;SDS011;25758;48.200;16.338;2024-01-16T08:59:26;3.05;;;0.40;;
40052;SDS011;25758;48.200;16.338;2024-01-16T09:02:09;3.72;;;1.00;;
40052;SDS011;25758;48.200;16.338;2024-01-16T09:04:35;1.42;;;0.50;;
40052;SDS011;25758;48.200;16.338;2024-01-16T09:07:01;3.80;;;0.50;;
40052;SDS011;25758;48.200;16.338;2024-01-16T09:09:29;3.88;;;0.40;;
40052;SDS011;25758;48.200;16.338;2024-01-16T09:11:55;2.70;;;0.63;;
40052;SDS011;25758;48.200;16.338;2024-01-16T09:14:22;7.80;;;0.65;;
40052;SDS011;25758;48.200;16.338;2024-01-16T09:16:51;2.80;;;0.90;;
40052;SDS011;25758;48.200;16.338;2024-01-16T09:19:19;3.40;;;0.77;;
40052;SDS011;25758;48.200;16.338;2024-01-16T09:21:45;3.38;;;1.00;;
40052;SDS011;25758;48.200;16.338;2024-01-16T09:26:44;1.92;;;0.45;;
40052;SDS011;25758;48.200;16.338;2024-01-16T09:29:10;2.40;;;0.30;;
40052;SDS011;25758;48.200;16.338;2024-01-16T09:31:36;2.53;;;0.35;;
40052;SDS011;25758;48.200;16.338;2024-01-16T09:34:03;2.10;;;0.40;;
40052;SDS011;25758;48.200;16.338;2024-01-16T09:36:29;9.88;;;2.25;;
40052;SDS011;25758;48.200;16.338;2024-01-16T09:38:54;1.33;;;0.50;;
40052;SDS011;25758;48.200;16.338;2024-01-16T09:41:20;4.88;;;0.73;;
40052;SDS011;25758;48.200;16.338;2024-01-16T09:43:47;3.92;;;0.63;;
40052;SDS011;25758;48.200;16.338;2024-01-16T09:49:38;1.50;;;0.50;;
40052;SDS011;25758;48.200;16.338;2024-01-16T09:52:05;5.95;;;1.00;;
40052;SDS011;25758;48.200;16.338;2024-01-16T09:54:31;2.38;;;0.60;;
40052;SDS011;25758;48.200;16.338;2024-01-16T09:56:58;2.63;;;0.80;;
40052;SDS011;25758;48.200;16.338;2024-01-16T09:59:24;2.83;;;0.47;;
40052;SDS011;25758;48.200;16.338;2024-01-16T10:01:51;5.15;;;0.60;;
40052;SDS011;25758;48.200;16.338;2024-01-16T10:04:19;3.05;;;0.70;;
40052;SDS011;25758;48.200;16.338;2024-01-16T10:06:45;5.22;;;0.65;;
40052;SDS011;25758;48.200;16.338;2024-01-16T10:09:12;5.85;;;1.48;;
40052;SDS011;25758;48.200;16.338;2024-01-16T10:11:37;4.63;;;1.20;;
40052;SDS011;25758;48.200;16.338;2024-01-16T10:14:03;4.65;;;0.70;;
40052;SDS011;25758;48.200;16.338;2024-01-16T10:19:23;4.07;;;0.50;;
40052;SDS011;25758;48.200;16.338;2024-01-16T10:21:48;2.53;;;0.50;;
40052;SDS011;25758;48.200;16.338;2024-01-16T10:24:15;4.25;;;0.80;;
40052;SDS011;25758;48.200;16.338;2024-01-16T10:26:40;8.38;;;1.95;;
40052;SDS011;25758;48.200;16.338;2024-01-16T10:29:06;3.80;;;0.93;;
40052;SDS011;25758;48.200;16.338;2024-01-16T10:34:18;2.97;;;0.60;;
40052;SDS011;25758;48.200;16.338;2024-01-16T10:36:46;2.03;;;0.47;;
40052;SDS011;25758;48.200;16.338;2024-01-16T10:39:13;5.75;;;1.02;;
40052;SDS011;25758;48.200;16.338;2024-01-16T10:46:49;3.38;;;0.70;;
40052;SDS011;25758;48.200;16.338;2024-01-16T10:49:15;4.25;;;1.10;;
40052;SDS011;25758;48.200;16.338;2024-01-16T10:52:00;2.42;;;0.82;;
40052;SDS011;25758;48.200;16.338;2024-01-16T10:54:26;2.38;;;0.55;;
40052;SDS011;25758;48.200;16.338;2024-01-16T10:56:52;4.07;;;1.10;;
40052;SDS011;25758;48.200;16.338;2024-01-16T10:59:24;1.77;;;0.68;;
40052;SDS011;25758;48.200;16.338;2024-01-16T11:02:29;4.05;;;0.55;;
40052;SDS011;25758;48.200;16.338;2024-01-16T11:05:01;4.85;;;0.32;;
40052;SDS011;25758;48.200;16.338;2024-01-16T11:07:28;3.67;;;0.82;;
40052;SDS011;25758;48.200;16.338;2024-01-16T11:09:54;2.38;;;0.60;;
40052;SDS011;25758;48.200;16.338;2024-01-16T11:15:43;3.13;;;0.50;;
40052;SDS011;25758;48.200;16.338;2024-01-16T11:18:13;0.80;;;0.30;;
40052;SDS011;25758;48.200;16.338;2024-01-16T11:20:40;1.77;;;0.52;;
40052;SDS011;25758;48.200;16.338;2024-01-16T11:23:07;3.03;;;0.80;;
40052;SDS011;25758;48.200;16.338;2024-01-16T11:25:35;5.20;;;0.98;;
40052;SDS011;25758;48.200;16.338;2024-01-16T11:28:10;4.30;;;0.70;;
40052;SDS011;25758;48.200;16.338;2024-01-16T11:33:41;3.22;;;0.68;;
40052;SDS011;25758;48.200;16.338;2024-01-16T11:36:23;5.43;;;0.80;;
40052;SDS011;25758;48.200;16.338;2024-01-16T11:39:16;5.63;;;0.77;;
40052;SDS011;25758;48.200;16.338;2024-01-16T11:41:53;3.75;;;0.40;;
40052;SDS011;25758;48.200;16.338;2024-01-16T11:47:30;2.33;;;0.55;;
40052;SDS011;25758;48.200;16.338;2024-01-16T11:50:11;4.75;;;0.90;;
40052;SDS011;25758;48.200;16.338;2024-01-16T11:56:35;3.92;;;1.05;;
40052;SDS011;25758;48.200;16.338;2024-01-16T12:00:01;6.97;;;1.10;;
40052;SDS011;25758;48.200;16.338;2024-01-16T12:02:51;2.97;;;0.35;;
40052;SDS011;25758;48.200;16.338;2024-01-16T12:05:19;5.15;;;1.05;;
40052;SDS011;25758;48.200;16.338;2024-01-16T12:07:49;4.68;;;0.82;;
40052;SDS011;25758;48.200;16.338;2024-01-16T12:10:17;1.83;;;0.55;;
40052;SDS011;25758;48.200;16.338;2024-01-16T12:12:44;4.18;;;0.70;;
40052;SDS011;25758;48.200;16.338;2024-01-16T12:15:14;2.85;;;1.10;;
40052;SDS011;25758;48.200;16.338;2024-01-16T12:17:52;3.03;;;0.38;;
40052;SDS011;25758;48.200;16.338;2024-01-16T12:20:20;3.08;;;0.38;;
40052;SDS011;25758;48.200;16.338;2024-01-16T12:23:20;4.32;;;0.32;;
40052;SDS011;25758;48.200;16.338;2024-01-16T12:25:38;2.78;;;0.45;;
40052;SDS011;25758;48.200;16.338;2024-01-16T12:28:08;3.50;;;0.55;;
40052;SDS011;25758;48.200;16.338;2024-01-16T12:30:36;3.03;;;0.30;;
40052;SDS011;25758;48.200;16.338;2024-01-16T12:35:41;1.52;;;0.30;;
40052;SDS011;25758;48.200;16.338;2024-01-16T12:38:10;3.08;;;0.22;;
40052;SDS011;25758;48.200;16.338;2024-01-16T12:40:44;5.80;;;2.33;;
40052;SDS011;25758;48.200;16.338;2024-01-16T12:43:13;4.40;;;0.60;;
40052;SDS011;25758;48.200;16.338;2024-01-16T12:45:40;3.42;;;0.60;;
40052;SDS011;25758;48.200;16.338;2024-01-16T12:48:06;3.55;;;0.50;;
40052;SDS011;25758;48.200;16.338;2024-01-16T12:50:33;3.33;;;0.43;;
40052;SDS011;25758;48.200;16.338;2024-01-16T12:55:35;3.03;;;0.30;;
40052;SDS011;25758;48.200;16.338;2024-01-16T13:00:44;2.92;;;0.30;;
40052;SDS011;25758;48.200;16.338;2024-01-16T13:03:20;4.85;;;1.50;;
40052;SDS011;25758;48.200;16.338;2024-01-16T13:05:57;3.25;;;0.40;;
40052;SDS011;25758;48.200;16.338;2024-01-16T13:08:25;1.88;;;0.38;;
40052;SDS011;25758;48.200;16.338;2024-01-16T13:11:04;4.85;;;1.02;;
40052;SDS011;25758;48.200;16.338;2024-01-16T13:13:34;3.47;;;0.45;;
40052;SDS011;25758;48.200;16.338;2024-01-16T13:16:01;0.70;;;0.15;;
40052;SDS011;25758;48.200;16.338;2024-01-16T13:18:28;2.38;;;0.20;;
40052;SDS011;25758;48.200;16.338;2024-01-16T13:20:56;2.65;;;0.55;;
40052;SDS011;25758;48.200;16.338;2024-01-16T13:23:23;6.28;;;0.80;;
40052;SDS011;25758;48.200;16.338;2024-01-16T13:25:52;2.75;;;0.52;;
40052;SDS011;25758;48.200;16.338;2024-01-16T13:28:19;3.65;;;0.52;;
40052;SDS011;25758;48.200;16.338;2024-01-16T13:30:46;1.23;;;0.20;;
40052;SDS011;25758;48.200;16.338;2024-01-16T13:33:13;4.03;;;0.80;;
40052;SDS011;25758;48.200;16.338;2024-01-16T13:35:41;2.58;;;1.23;;
40052;SDS011;25758;48.200;16.338;2024-01-16T13:38:08;1.90;;;0.55;;
40052;SDS011;25758;48.200;16.338;2024-01-16T13:40:35;5.43;;;1.30;;
40052;SDS011;25758;48.200;16.338;2024-01-16T13:43:02;6.68;;;1.40;;
40052;SDS011;25758;48.200;16.338;2024-01-16T13:45:28;2.40;;;0.40;;
40052;SDS011;25758;48.200;16.338;2024-01-16T13:47:54;2.70;;;0.55;;
40052;SDS011;25758;48.200;16.338;2024-01-16T13:50:20;3.03;;;0.40;;
40052;SDS011;25758;48.200;16.338;2024-01-16T13:52:46;0.30;;;0.00;;
40052;SDS011;25758;48.200;16.338;2024-01-16T13:55:12;1.35;;;0.20;;
40052;SDS011;25758;48.200;16.338;2024-01-16T13:57:37;4.75;;;0.32;;
40052;SDS011;25758;48.200;16.338;2024-01-16T14:00:04;2.55;;;0.52;;
40052;SDS011;25758;48.200;16.338;2024-01-16T14:02:31;1.70;;;0.20;;
40052;SDS011;25758;48.200;16.338;2024-01-16T14:04:57;1.55;;;0.10;;
40052;SDS011;25758;48.200;16.338;2024-01-16T14:07:22;2.85;;;0.20;;
40052;SDS011;25758;48.200;16.338;2024-01-16T14:09:48;4.88;;;0.40;;
40052;SDS011;25758;48.200;16.338;2024-01-16T14:12:14;2.55;;;0.63;;
40052;SDS011;25758;48.200;16.338;2024-01-16T14:14:40;8.73;;;0.52;;
40052;SDS011;25758;48.200;16.338;2024-01-16T14:17:06;4.03;;;1.60;;
40052;SDS011;25758;48.200;16.338;2024-01-16T14:19:35;2.28;;;0.60;;
40052;SDS011;25758;48.200;16.338;2024-01-16T14:22:01;2.90;;;0.30;;
40052;SDS011;25758;48.200;16.338;2024-01-16T14:24:27;4.80;;;0.30;;
40052;SDS011;25758;48.200;16.338;2024-01-16T14:26:53;1.38;;;0.15;;
40052;SDS011;25758;48.200;16.338;2024-01-16T14:29:18;2.42;;;0.50;;
40052;SDS011;25758;48.200;16.338;2024-01-16T14:31:44;5.55;;;0.80;;
40052;SDS011;25758;48.200;16.338;2024-01-16T14:34:13;2.55;;;0.43;;
40052;SDS011;25758;48.200;16.338;2024-01-16T14:36:40;2.50;;;0.80;;
40052;SDS011;25758;48.200;16.338;2024-01-16T14:39:06;3.53;;;0.90;;
40052;SDS011;25758;48.200;16.338;2024-01-16T14:41:34;3.08;;;0.57;;
40052;SDS011;25758;48.200;16.338;2024-01-16T14:44:00;5.10;;;0.50;;
40052;SDS011;25758;48.200;16.338;2024-01-16T14:46:26;5.10;;;0.55;;
40052;SDS011;25758;48.200;16.338;2024-01-16T14:48:52;5.90;;;1.40;;
40052;SDS011;25758;48.200;16.338;2024-01-16T14:51:17;4.40;;;0.65;;
40052;SDS011;25758;48.200;16.338;2024-01-16T14:53:43;3.63;;;0.93;;
40052;SDS011;25758;48.200;16.338;2024-01-16T14:56:08;3.92;;;0.43;;
40052;SDS011;25758;48.200;16.338;2024-01-16T14:58:38;4.72;;;0.70;;
40052;SDS011;25758;48.200;16.338;2024-01-16T15:01:03;1.52;;;0.32;;
40052;SDS011;25758;48.200;16.338;2024-01-16T15:03:30;4.63;;;0.50;;
40052;SDS011;25758;48.200;16.338;2024-01-16T15:05:56;8.48;;;0.70;;
40052;SDS011;25758;48.200;16.338;2024-01-16T15:08:22;5.72;;;0.40;;
40052;SDS011;25758;48.200;16.338;2024-01-16T15:10:48;3.30;;;0.70;;
40052;SDS011;25758;48.200;16.338;2024-01-16T15:13:13;1.73;;;0.40;;